Uniontown, Kansas
Current Conditions -  °F | °C
As of 1:52 PM on Sunday 23 Nov 2014 (Local Time) from KCNU Reporting Station
Overcast Overcast  
Wind Chill: 57°   Ceiling: 1900
Heat Index: 57°   Visibility: 9mi
Dew Point: 56°   Wind: 5mph
Humidity: 96%   Direction: 270°W
Pressure: 29.34"   Gusts: NA
Location:  37.85°N, 94.98°W
Report Text: KCNU 231952Z AUTO 27004KT 9SM SCT007 BKN019 OVC027 14/13 A2934 RMK AO2 RAE1855B11E18 SLP931 P0000 T01390133
Loading
Personal Weather Stations






























Interactive Weather Map New forecast layout! Learn more

10-Day Weather Forecast

Advertisements
Track Severe Weather on mobile